sensor_id;sensor_type;location;lat;lon;timestamp;pressure;altitude;pressure_sealevel;temperature;humidity
32033;BME280;31720;52.638;9.216;2023-04-25T00:02:29;100369.19;;;7.28;100.00
32033;BME280;31720;52.638;9.216;2023-04-25T00:05:32;100373.47;;;7.29;100.00
32033;BME280;31720;52.638;9.216;2023-04-25T00:08:34;100371.06;;;7.24;100.00
32033;BME280;31720;52.638;9.216;2023-04-25T00:11:36;100362.09;;;7.30;100.00
32033;BME280;31720;52.638;9.216;2023-04-25T00:14:38;100375.47;;;7.24;100.00
32033;BME280;31720;52.638;9.216;2023-04-25T00:17:39;100376.94;;;7.29;100.00
32033;BME280;31720;52.638;9.216;2023-04-25T00:20:41;100369.38;;;7.23;100.00
32033;BME280;31720;52.638;9.216;2023-04-25T00:23:47;100373.47;;;7.29;100.00
32033;BME280;31720;52.638;9.216;2023-04-25T00:26:49;100372.72;;;7.27;100.00
32033;BME280;31720;52.638;9.216;2023-04-25T00:29:51;100360.41;;;7.29;100.00
32033;BME280;31720;52.638;9.216;2023-04-25T00:32:52;100366.78;;;7.23;100.00
32033;BME280;31720;52.638;9.216;2023-04-25T00:35:54;100360.50;;;7.27;100.00
32033;BME280;31720;52.638;9.216;2023-04-25T00:38:55;100359.84;;;7.22;100.00
32033;BME280;31720;52.638;9.216;2023-04-25T00:41:58;100369.38;;;7.23;100.00
32033;BME280;31720;52.638;9.216;2023-04-25T00:45:00;100375.47;;;7.24;100.00
32033;BME280;31720;52.638;9.216;2023-04-25T00:48:03;100371.63;;;7.12;100.00
32033;BME280;31720;52.638;9.216;2023-04-25T00:51:05;100369.16;;;7.09;100.00
32033;BME280;31720;52.638;9.216;2023-04-25T00:54:07;100376.28;;;7.05;100.00
32033;BME280;31720;52.638;9.216;2023-04-25T00:57:09;100373.81;;;7.02;100.00
32033;BME280;31720;52.638;9.216;2023-04-25T01:00:12;100368.56;;;7.02;100.00
32033;BME280;31720;52.638;9.216;2023-04-25T01:03:15;100373.72;;;7.04;100.00
32033;BME280;31720;52.638;9.216;2023-04-25T01:06:17;100366.97;;;7.00;100.00
32033;BME280;31720;52.638;9.216;2023-04-25T01:09:18;100374.72;;;7.01;100.00
32033;BME280;31720;52.638;9.216;2023-04-25T01:12:22;100384.53;;;6.96;100.00
32033;BME280;31720;52.638;9.216;2023-04-25T01:15:24;100396.88;;;6.93;100.00
32033;BME280;31720;52.638;9.216;2023-04-25T01:18:25;100401.72;;;6.81;100.00
32033;BME280;31720;52.638;9.216;2023-04-25T01:21:28;100408.31;;;6.70;100.00
32033;BME280;31720;52.638;9.216;2023-04-25T01:24:31;100410.81;;;6.73;100.00
32033;BME280;31720;52.638;9.216;2023-04-25T01:27:33;100414.69;;;6.63;100.00
32033;BME280;31720;52.638;9.216;2023-04-25T01:30:34;100411.06;;;6.67;100.00
32033;BME280;31720;52.638;9.216;2023-04-25T01:33:36;100415.63;;;6.61;100.00
32033;BME280;31720;52.638;9.216;2023-04-25T01:36:39;100415.44;;;6.66;100.00
32033;BME280;31720;52.638;9.216;2023-04-25T01:39:41;100418.03;;;6.66;100.00
32033;BME280;31720;52.638;9.216;2023-04-25T01:42:43;100417.66;;;6.75;100.00
32033;BME280;31720;52.638;9.216;2023-04-25T01:45:44;100425.69;;;6.71;100.00
32033;BME280;31720;52.638;9.216;2023-04-25T01:48:46;100421.66;;;6.64;100.00
32033;BME280;31720;52.638;9.216;2023-04-25T01:51:49;100425.09;;;6.64;100.00
32033;BME280;31720;52.638;9.216;2023-04-25T01:54:51;100430.31;;;6.64;100.00
32033;BME280;31720;52.638;9.216;2023-04-25T01:57:52;100420.91;;;6.60;100.00
32033;BME280;31720;52.638;9.216;2023-04-25T02:00:54;100432.31;;;6.57;100.00
32033;BME280;31720;52.638;9.216;2023-04-25T02:03:55;100439.97;;;6.62;100.00
32033;BME280;31720;52.638;9.216;2023-04-25T02:06:58;100440.88;;;6.61;100.00
32033;BME280;31720;52.638;9.216;2023-04-25T02:09:59;100441.72;;;6.61;100.00
32033;BME280;31720;52.638;9.216;2023-04-25T02:13:01;100435.47;;;6.66;100.00
32033;BME280;31720;52.638;9.216;2023-04-25T02:16:03;100446.72;;;6.68;100.00
32033;BME280;31720;52.638;9.216;2023-04-25T02:19:04;100446.88;;;6.63;100.00
32033;BME280;31720;52.638;9.216;2023-04-25T02:22:07;100456.16;;;6.70;100.00
32033;BME280;31720;52.638;9.216;2023-04-25T02:25:09;100460.47;;;6.71;100.00
32033;BME280;31720;52.638;9.216;2023-04-25T02:28:11;100453.16;;;6.59;100.00
32033;BME280;31720;52.638;9.216;2023-04-25T02:31:13;100454.91;;;6.58;100.00
32033;BME280;31720;52.638;9.216;2023-04-25T02:34:14;100458.31;;;6.60;100.00
32033;BME280;31720;52.638;9.216;2023-04-25T02:37:17;100455.09;;;6.54;100.00
32033;BME280;31720;52.638;9.216;2023-04-25T02:40:18;100458.63;;;6.53;100.00
32033;BME280;31720;52.638;9.216;2023-04-25T02:43:19;100460.09;;;6.60;100.00
32033;BME280;31720;52.638;9.216;2023-04-25T02:46:22;100462.69;;;6.60;100.00
32033;BME280;31720;52.638;9.216;2023-04-25T02:49:23;100467.00;;;6.61;100.00
32033;BME280;31720;52.638;9.216;2023-04-25T02:52:26;100465.59;;;6.52;100.00
32033;BME280;31720;52.638;9.216;2023-04-25T02:55:27;100474.06;;;6.59;100.00
32033;BME280;31720;52.638;9.216;2023-04-25T02:58:29;100464.66;;;6.55;100.00
32033;BME280;31720;52.638;9.216;2023-04-25T03:01:30;100471.69;;;6.53;100.00
32033;BME280;31720;52.638;9.216;2023-04-25T03:04:32;100468.34;;;6.49;100.00
32033;BME280;31720;52.638;9.216;2023-04-25T03:07:35;100490.41;;;6.42;100.00
32033;BME280;31720;52.638;9.216;2023-04-25T03:10:38;100485.44;;;6.36;100.00
32033;BME280;31720;52.638;9.216;2023-04-25T03:13:39;100482.56;;;6.42;100.00
32033;BME280;31720;52.638;9.216;2023-04-25T03:16:41;100483.41;;;6.43;100.00
32033;BME280;31720;52.638;9.216;2023-04-25T03:19:42;100489.72;;;6.37;100.00
32033;BME280;31720;52.638;9.216;2023-04-25T03:22:45;100486.31;;;6.35;100.00
32033;BME280;31720;52.638;9.216;2023-04-25T03:25:46;100494.81;;;6.40;100.00
32033;BME280;31720;52.638;9.216;2023-04-25T03:28:48;100488.16;;;6.33;100.00
32033;BME280;31720;52.638;9.216;2023-04-25T03:31:49;100490.75;;;6.33;100.00
32033;BME280;31720;52.638;9.216;2023-04-25T03:34:50;100496.84;;;6.33;100.00
32033;BME280;31720;52.638;9.216;2023-04-25T03:37:53;100499.91;;;6.21;100.00
32033;BME280;31720;52.638;9.216;2023-04-25T03:40:54;100505.94;;;6.23;100.00
32033;BME280;31720;52.638;9.216;2023-04-25T03:43:57;100503.34;;;6.23;100.00
32033;BME280;31720;52.638;9.216;2023-04-25T03:46:58;100517.16;;;6.25;100.00
32033;BME280;31720;52.638;9.216;2023-04-25T03:49:59;100501.00;;;6.16;100.00
32033;BME280;31720;52.638;9.216;2023-04-25T03:53:03;100520.19;;;6.15;100.00
32033;BME280;31720;52.638;9.216;2023-04-25T03:56:05;100518.31;;;6.18;100.00
32033;BME280;31720;52.638;9.216;2023-04-25T03:59:07;100517.50;;;6.16;100.00
32033;BME280;31720;52.638;9.216;2023-04-25T04:02:08;100527.22;;;6.13;100.00
32033;BME280;31720;52.638;9.216;2023-04-25T04:05:09;100535.84;;;6.15;100.00
32033;BME280;31720;52.638;9.216;2023-04-25T04:08:12;100532.69;;;6.06;100.00
32033;BME280;31720;52.638;9.216;2023-04-25T04:11:13;100529.16;;;6.07;100.00
32033;BME280;31720;52.638;9.216;2023-04-25T04:14:15;100535.88;;;6.13;100.00
32033;BME280;31720;52.638;9.216;2023-04-25T04:17:16;100536.75;;;6.14;100.00
32033;BME280;31720;52.638;9.216;2023-04-25T04:20:18;100536.03;;;6.10;100.00
32033;BME280;31720;52.638;9.216;2023-04-25T04:23:20;100540.25;;;6.13;100.00
32033;BME280;31720;52.638;9.216;2023-04-25T04:26:23;100540.16;;;6.16;100.00
32033;BME280;31720;52.638;9.216;2023-04-25T04:29:24;100540.88;;;6.19;100.00
32033;BME280;31720;52.638;9.216;2023-04-25T04:32:25;100549.84;;;6.12;100.00
32033;BME280;31720;52.638;9.216;2023-04-25T04:35:27;100549.81;;;6.14;100.00
32033;BME280;31720;52.638;9.216;2023-04-25T04:38:30;100552.44;;;6.12;100.00
32033;BME280;31720;52.638;9.216;2023-04-25T04:41:32;100549.66;;;6.17;100.00
32033;BME280;31720;52.638;9.216;2023-04-25T04:44:33;100554.84;;;6.18;100.00
32033;BME280;31720;52.638;9.216;2023-04-25T04:47:35;100557.50;;;6.17;100.00
32033;BME280;31720;52.638;9.216;2023-04-25T04:50:36;100559.31;;;6.15;100.00
32033;BME280;31720;52.638;9.216;2023-04-25T04:53:40;100560.44;;;6.07;100.00
32033;BME280;31720;52.638;9.216;2023-04-25T04:56:41;100568.34;;;6.06;100.00
32033;BME280;31720;52.638;9.216;2023-04-25T04:59:43;100570.59;;;6.15;100.00
32033;BME280;31720;52.638;9.216;2023-04-25T05:02:45;100574.81;;;6.19;100.00
32033;BME280;31720;52.638;9.216;2023-04-25T05:05:46;100582.47;;;6.24;100.00
32033;BME280;31720;52.638;9.216;2023-04-25T05:08:49;100585.44;;;6.13;100.00
32033;BME280;31720;52.638;9.216;2023-04-25T05:11:50;100590.00;;;6.08;100.00
32033;BME280;31720;52.638;9.216;2023-04-25T05:14:51;100597.13;;;6.04;100.00
32033;BME280;31720;52.638;9.216;2023-04-25T05:17:53;100601.59;;;6.01;100.00
32033;BME280;31720;52.638;9.216;2023-04-25T05:20:54;100602.31;;;6.04;100.00
32033;BME280;31720;52.638;9.216;2023-04-25T05:23:57;100604.97;;;6.03;100.00
32033;BME280;31720;52.638;9.216;2023-04-25T05:26:58;100615.97;;;6.11;100.00
32033;BME280;31720;52.638;9.216;2023-04-25T05:30:00;100610.66;;;6.14;100.00
32033;BME280;31720;52.638;9.216;2023-04-25T05:33:01;100610.41;;;6.20;100.00
32033;BME280;31720;52.638;9.216;2023-04-25T05:36:03;100616.56;;;6.19;100.00
32033;BME280;31720;52.638;9.216;2023-04-25T05:39:05;100612.25;;;6.18;100.00
32033;BME280;31720;52.638;9.216;2023-04-25T05:42:08;100624.44;;;6.18;100.00
32033;BME280;31720;52.638;9.216;2023-04-25T05:45:10;100618.19;;;6.22;100.00
32033;BME280;31720;52.638;9.216;2023-04-25T05:48:11;100627.00;;;6.19;100.00
32033;BME280;31720;52.638;9.216;2023-04-25T05:51:13;100638.28;;;6.20;100.00
32033;BME280;31720;52.638;9.216;2023-04-25T05:54:15;100628.84;;;6.16;100.00
32033;BME280;31720;52.638;9.216;2023-04-25T05:57:22;100635.09;;;6.12;100.00
32033;BME280;31720;52.638;9.216;2023-04-25T06:00:24;100641.97;;;6.14;100.00
32033;BME280;31720;52.638;9.216;2023-04-25T06:03:25;100646.94;;;6.20;100.00
32033;BME280;31720;52.638;9.216;2023-04-25T06:06:27;100642.75;;;6.16;100.00
32033;BME280;31720;52.638;9.216;2023-04-25T06:09:29;100657.38;;;6.20;100.00
32033;BME280;31720;52.638;9.216;2023-04-25T06:12:31;100655.53;;;6.24;100.00
32033;BME280;31720;52.638;9.216;2023-04-25T06:15:32;100658.19;;;6.22;100.00
32033;BME280;31720;52.638;9.216;2023-04-25T06:18:33;100669.53;;;6.21;100.00
32033;BME280;31720;52.638;9.216;2023-04-25T06:21:35;100666.06;;;6.21;100.00
32033;BME280;31720;52.638;9.216;2023-04-25T06:24:38;100674.53;;;6.27;100.00
32033;BME280;31720;52.638;9.216;2023-04-25T06:27:39;100674.69;;;6.23;100.00
32033;BME280;31720;52.638;9.216;2023-04-25T06:30:40;100677.34;;;6.21;100.00
32033;BME280;31720;52.638;9.216;2023-04-25T06:33:42;100678.19;;;6.22;100.00
32033;BME280;31720;52.638;9.216;2023-04-25T06:36:43;100686.50;;;6.33;100.00
32033;BME280;31720;52.638;9.216;2023-04-25T06:39:46;100688.19;;;6.34;100.00
32033;BME280;31720;52.638;9.216;2023-04-25T06:42:47;100685.50;;;6.35;100.00
32033;BME280;31720;52.638;9.216;2023-04-25T06:45:49;100675.53;;;6.47;100.00
32033;BME280;31720;52.638;9.216;2023-04-25T06:48:50;100689.34;;;6.50;100.00
32033;BME280;31720;52.638;9.216;2023-04-25T06:51:51;100680.19;;;6.39;100.00
32033;BME280;31720;52.638;9.216;2023-04-25T06:54:54;100683.72;;;6.38;100.00
32033;BME280;31720;52.638;9.216;2023-04-25T06:57:56;100690.28;;;6.48;100.00
32033;BME280;31720;52.638;9.216;2023-04-25T07:00:57;100687.75;;;6.46;100.00
32033;BME280;31720;52.638;9.216;2023-04-25T07:03:58;100693.88;;;6.45;100.00
32033;BME280;31720;52.638;9.216;2023-04-25T07:07:01;100687.25;;;6.58;100.00
32033;BME280;31720;52.638;9.216;2023-04-25T07:10:05;100692.16;;;6.44;100.00
32033;BME280;31720;52.638;9.216;2023-04-25T07:13:07;100694.94;;;6.40;100.00
32033;BME280;31720;52.638;9.216;2023-04-25T07:16:08;100707.78;;;6.46;100.00
32033;BME280;31720;52.638;9.216;2023-04-25T07:19:10;100702.56;;;6.46;100.00
32033;BME280;31720;52.638;9.216;2023-04-25T07:22:11;100702.50;;;6.47;100.00
32033;BME280;31720;52.638;9.216;2023-04-25T07:25:14;100704.88;;;6.53;100.00
32033;BME280;31720;52.638;9.216;2023-04-25T07:28:15;100705.44;;;6.61;100.00
32033;BME280;31720;52.638;9.216;2023-04-25T07:31:17;100707.59;;;6.74;100.00
32033;BME280;31720;52.638;9.216;2023-04-25T07:34:18;100701.84;;;6.88;100.00
32033;BME280;31720;52.638;9.216;2023-04-25T07:37:19;100701.41;;;6.98;100.00
32033;BME280;31720;52.638;9.216;2023-04-25T07:40:22;100697.22;;;6.94;100.00
32033;BME280;31720;52.638;9.216;2023-04-25T07:43:24;100710.91;;;7.01;100.00
32033;BME280;31720;52.638;9.216;2023-04-25T07:46:26;100717.06;;;7.00;100.00
32033;BME280;31720;52.638;9.216;2023-04-25T07:49:27;100709.03;;;7.04;100.00
32033;BME280;31720;52.638;9.216;2023-04-25T07:52:28;100726.22;;;7.10;100.00
32033;BME280;31720;52.638;9.216;2023-04-25T07:55:31;100723.72;;;7.07;100.00
32033;BME280;31720;52.638;9.216;2023-04-25T07:58:32;100741.78;;;7.13;100.00
32033;BME280;31720;52.638;9.216;2023-04-25T08:01:34;100729.00;;;7.05;100.00
32033;BME280;31720;52.638;9.216;2023-04-25T08:04:35;100730.88;;;7.02;100.00
32033;BME280;31720;52.638;9.216;2023-04-25T08:07:37;100746.50;;;7.03;100.00
32033;BME280;31720;52.638;9.216;2023-04-25T08:10:40;100749.84;;;7.07;100.00
32033;BME280;31720;52.638;9.216;2023-04-25T08:13:42;100754.69;;;6.94;100.00
32033;BME280;31720;52.638;9.216;2023-04-25T08:16:43;100763.16;;;7.01;100.00
32033;BME280;31720;52.638;9.216;2023-04-25T08:19:44;100763.53;;;7.14;100.00
32033;BME280;31720;52.638;9.216;2023-04-25T08:22:46;100763.47;;;7.15;100.00
32033;BME280;31720;52.638;9.216;2023-04-25T08:25:50;100757.63;;;7.08;100.00
32033;BME280;31720;52.638;9.216;2023-04-25T08:28:52;100766.13;;;6.92;100.00
32033;BME280;31720;52.638;9.216;2023-04-25T08:31:53;100782.22;;;7.03;100.00
32033;BME280;31720;52.638;9.216;2023-04-25T08:34:54;100778.38;;;7.13;100.00
32033;BME280;31720;52.638;9.216;2023-04-25T08:37:56;100771.19;;;7.18;100.00
32033;BME280;31720;52.638;9.216;2023-04-25T08:40:59;100771.41;;;7.12;100.00
32033;BME280;31720;52.638;9.216;2023-04-25T08:44:03;100770.88;;;7.26;100.00
32033;BME280;31720;52.638;9.216;2023-04-25T08:47:05;100771.25;;;7.38;100.00
32033;BME280;31720;52.638;9.216;2023-04-25T08:50:07;100770.59;;;7.33;100.00
32033;BME280;31720;52.638;9.216;2023-04-25T08:53:09;100771.19;;;7.40;100.00
32033;BME280;31720;52.638;9.216;2023-04-25T08:56:15;100772.25;;;7.36;100.00
32033;BME280;31720;52.638;9.216;2023-04-25T08:59:18;100779.41;;;7.53;100.00
32033;BME280;31720;52.638;9.216;2023-04-25T09:02:20;100788.16;;;7.74;100.00
32033;BME280;31720;52.638;9.216;2023-04-25T09:05:21;100780.50;;;7.69;100.00
32033;BME280;31720;52.638;9.216;2023-04-25T09:08:23;100776.75;;;7.75;100.00
32033;BME280;31720;52.638;9.216;2023-04-25T09:11:25;100791.16;;;7.85;100.00
32033;BME280;31720;52.638;9.216;2023-04-25T09:14:27;100801.06;;;7.99;97.70
32033;BME280;31720;52.638;9.216;2023-04-25T09:17:28;100805.00;;;8.09;100.00
32033;BME280;31720;52.638;9.216;2023-04-25T09:20:30;100803.00;;;7.94;99.28
32033;BME280;31720;52.638;9.216;2023-04-25T09:23:39;100812.09;;;7.85;100.00
32033;BME280;31720;52.638;9.216;2023-04-25T09:26:42;100820.97;;;7.81;100.00
32033;BME280;31720;52.638;9.216;2023-04-25T09:29:43;100821.59;;;7.66;100.00
32033;BME280;31720;52.638;9.216;2023-04-25T09:32:46;100838.13;;;7.44;100.00
32033;BME280;31720;52.638;9.216;2023-04-25T09:35:48;100843.25;;;7.47;100.00
32033;BME280;31720;52.638;9.216;2023-04-25T09:38:54;100850.03;;;7.29;100.00
32033;BME280;31720;52.638;9.216;2023-04-25T09:41:57;100853.22;;;7.37;100.00
32033;BME280;31720;52.638;9.216;2023-04-25T09:44:59;100861.81;;;7.41;100.00
32033;BME280;31720;52.638;9.216;2023-04-25T09:48:03;100854.19;;;7.35;100.00
32033;BME280;31720;52.638;9.216;2023-04-25T09:51:07;100868.44;;;7.26;100.00
32033;BME280;31720;52.638;9.216;2023-04-25T09:54:09;100868.06;;;7.37;100.00
32033;BME280;31720;52.638;9.216;2023-04-25T09:57:14;100872.19;;;7.43;100.00
32033;BME280;31720;52.638;9.216;2023-04-25T10:00:15;100868.81;;;7.41;100.00
32033;BME280;31720;52.638;9.216;2023-04-25T10:03:18;100872.94;;;7.46;100.00
32033;BME280;31720;52.638;9.216;2023-04-25T10:06:22;100872.63;;;7.54;100.00
32033;BME280;31720;52.638;9.216;2023-04-25T10:09:26;100872.56;;;7.55;100.00
32033;BME280;31720;52.638;9.216;2023-04-25T10:12:31;100881.75;;;7.66;100.00
32033;BME280;31720;52.638;9.216;2023-04-25T10:15:35;100870.53;;;7.63;100.00
32033;BME280;31720;52.638;9.216;2023-04-25T10:18:36;100869.59;;;7.86;100.00
32033;BME280;31720;52.638;9.216;2023-04-25T10:21:43;100882.72;;;8.07;98.72
32033;BME280;31720;52.638;9.216;2023-04-25T10:24:46;100867.44;;;8.18;98.38
32033;BME280;31720;52.638;9.216;2023-04-25T10:27:50;100875.53;;;8.12;99.36
32033;BME280;31720;52.638;9.216;2023-04-25T10:30:58;100880.38;;;8.01;99.50
32033;BME280;31720;52.638;9.216;2023-04-25T10:34:00;100910.34;;;7.70;100.00
32033;BME280;31720;52.638;9.216;2023-04-25T10:37:01;100924.94;;;7.30;100.00
32033;BME280;31720;52.638;9.216;2023-04-25T10:40:08;100898.88;;;6.55;100.00
32033;BME280;31720;52.638;9.216;2023-04-25T10:43:34;100910.72;;;6.39;100.00
32033;BME280;31720;52.638;9.216;2023-04-25T10:46:36;100918.31;;;6.47;100.00
32033;BME280;31720;52.638;9.216;2023-04-25T10:49:41;100911.28;;;6.49;100.00
32033;BME280;31720;52.638;9.216;2023-04-25T10:52:42;100911.28;;;6.49;100.00
32033;BME280;31720;52.638;9.216;2023-04-25T10:55:50;100920.09;;;6.71;100.00
32033;BME280;31720;52.638;9.216;2023-04-25T10:59:03;100918.50;;;6.92;100.00
32033;BME280;31720;52.638;9.216;2023-04-25T11:02:11;100919.84;;;7.02;100.00
32033;BME280;31720;52.638;9.216;2023-04-25T11:05:26;100909.50;;;6.99;100.00
32033;BME280;31720;52.638;9.216;2023-04-25T11:08:38;100913.06;;;7.22;100.00
32033;BME280;31720;52.638;9.216;2023-04-25T11:11:53;100907.28;;;7.37;100.00
32033;BME280;31720;52.638;9.216;2023-04-25T11:15:00;100911.00;;;7.53;100.00
32033;BME280;31720;52.638;9.216;2023-04-25T11:18:02;100913.88;;;7.69;100.00
32033;BME280;31720;52.638;9.216;2023-04-25T11:21:04;100904.47;;;8.09;100.00
32033;BME280;31720;52.638;9.216;2023-04-25T11:24:05;100905.16;;;8.12;100.00
32033;BME280;31720;52.638;9.216;2023-04-25T11:27:07;100912.97;;;8.36;100.00
32033;BME280;31720;52.638;9.216;2023-04-25T11:30:14;100904.56;;;8.50;100.00
32033;BME280;31720;52.638;9.216;2023-04-25T11:33:16;100914.31;;;8.46;100.00
32033;BME280;31720;52.638;9.216;2023-04-25T11:36:18;100925.22;;;8.13;100.00
32033;BME280;31720;52.638;9.216;2023-04-25T11:39:20;100943.47;;;7.93;100.00
32033;BME280;31720;52.638;9.216;2023-04-25T11:42:22;100942.19;;;7.58;100.00
32033;BME280;31720;52.638;9.216;2023-04-25T11:45:25;100949.03;;;7.38;100.00
32033;BME280;31720;52.638;9.216;2023-04-25T11:48:26;100955.25;;;7.11;100.00
32033;BME280;31720;52.638;9.216;2023-04-25T11:51:28;100932.16;;;6.99;97.60
32033;BME280;31720;52.638;9.216;2023-04-25T11:54:30;100943.31;;;7.04;90.59
32033;BME280;31720;52.638;9.216;2023-04-25T11:57:31;100948.97;;;7.17;91.29
32033;BME280;31720;52.638;9.216;2023-04-25T12:00:34;100951.31;;;7.24;90.95
32033;BME280;31720;52.638;9.216;2023-04-25T12:03:45;100955.13;;;7.39;94.58
32033;BME280;31720;52.638;9.216;2023-04-25T12:06:48;100955.97;;;7.40;93.62
32033;BME280;31720;52.638;9.216;2023-04-25T12:09:51;100958.72;;;7.36;96.66
32033;BME280;31720;52.638;9.216;2023-04-25T12:12:53;100969.16;;;7.36;100.00
32033;BME280;31720;52.638;9.216;2023-04-25T12:15:56;100959.56;;;7.12;100.00
32033;BME280;31720;52.638;9.216;2023-04-25T12:18:57;100960.75;;;7.28;100.00
32033;BME280;31720;52.638;9.216;2023-04-25T12:22:00;100956.88;;;7.62;100.00
32033;BME280;31720;52.638;9.216;2023-04-25T12:25:03;100959.00;;;7.98;97.18
32033;BME280;31720;52.638;9.216;2023-04-25T12:28:12;100950.59;;;8.33;100.00
32033;BME280;31720;52.638;9.216;2023-04-25T12:31:15;100953.44;;;8.49;99.19
32033;BME280;31720;52.638;9.216;2023-04-25T12:34:17;100957.59;;;8.55;98.80
32033;BME280;31720;52.638;9.216;2023-04-25T12:37:18;100952.81;;;8.64;93.84
32033;BME280;31720;52.638;9.216;2023-04-25T12:40:19;100962.25;;;9.09;97.84
32033;BME280;31720;52.638;9.216;2023-04-25T12:43:21;100951.09;;;9.25;89.40
32033;BME280;31720;52.638;9.216;2023-04-25T12:46:24;100946.56;;;9.08;95.25
32033;BME280;31720;52.638;9.216;2023-04-25T12:49:25;100957.94;;;8.88;96.44
32033;BME280;31720;52.638;9.216;2023-04-25T12:52:26;100968.00;;;8.56;100.00
32033;BME280;31720;52.638;9.216;2023-04-25T12:55:28;100997.09;;;8.05;100.00
32033;BME280;31720;52.638;9.216;2023-04-25T12:58:29;101000.75;;;7.05;100.00
32033;BME280;31720;52.638;9.216;2023-04-25T13:01:32;100994.50;;;6.58;100.00
32033;BME280;31720;52.638;9.216;2023-04-25T13:04:34;100972.81;;;6.29;100.00
32033;BME280;31720;52.638;9.216;2023-04-25T13:07:35;100966.53;;;6.37;100.00
32033;BME280;31720;52.638;9.216;2023-04-25T13:10:36;100971.53;;;6.69;100.00
32033;BME280;31720;52.638;9.216;2023-04-25T13:13:39;100975.63;;;7.26;100.00
32033;BME280;31720;52.638;9.216;2023-04-25T13:16:41;100969.50;;;7.74;100.00
32033;BME280;31720;52.638;9.216;2023-04-25T13:19:43;100976.91;;;7.63;100.00
32033;BME280;31720;52.638;9.216;2023-04-25T13:22:44;100967.16;;;7.43;100.00
32033;BME280;31720;52.638;9.216;2023-04-25T13:25:46;100968.69;;;7.49;100.00
32033;BME280;31720;52.638;9.216;2023-04-25T13:28:47;100960.75;;;7.52;100.00
32033;BME280;31720;52.638;9.216;2023-04-25T13:31:50;100962.25;;;7.59;100.00
32033;BME280;31720;52.638;9.216;2023-04-25T13:34:52;100966.69;;;7.79;100.00
32033;BME280;31720;52.638;9.216;2023-04-25T13:37:54;100971.13;;;8.00;100.00
32033;BME280;31720;52.638;9.216;2023-04-25T13:40:55;100966.84;;;8.63;100.00
32033;BME280;31720;52.638;9.216;2023-04-25T13:43:57;100961.47;;;9.07;100.00
32033;BME280;31720;52.638;9.216;2023-04-25T13:46:59;100972.00;;;8.85;100.00
32033;BME280;31720;52.638;9.216;2023-04-25T13:50:01;100978.09;;;8.66;100.00
32033;BME280;31720;52.638;9.216;2023-04-25T13:53:03;101012.66;;;8.31;95.98
32033;BME280;31720;52.638;9.216;2023-04-25T13:56:05;100989.91;;;7.88;97.54
32033;BME280;31720;52.638;9.216;2023-04-25T13:59:06;100982.28;;;7.82;100.00
32033;BME280;31720;52.638;9.216;2023-04-25T14:02:09;100979.59;;;7.83;97.94
32033;BME280;31720;52.638;9.216;2023-04-25T14:05:10;100979.94;;;7.98;100.00
32033;BME280;31720;52.638;9.216;2023-04-25T14:08:11;100986.56;;;8.06;95.49
32033;BME280;31720;52.638;9.216;2023-04-25T14:11:13;100975.13;;;8.09;94.02
32033;BME280;31720;52.638;9.216;2023-04-25T14:14:14;100992.06;;;8.22;100.00
32033;BME280;31720;52.638;9.216;2023-04-25T14:17:17;100984.59;;;8.13;100.00
32033;BME280;31720;52.638;9.216;2023-04-25T14:20:19;100982.28;;;8.04;100.00
32033;BME280;31720;52.638;9.216;2023-04-25T14:23:21;100987.69;;;8.23;100.00
32033;BME280;31720;52.638;9.216;2023-04-25T14:26:22;100979.47;;;8.74;100.00
32033;BME280;31720;52.638;9.216;2023-04-25T14:29:24;100968.75;;;9.01;100.00
32033;BME280;31720;52.638;9.216;2023-04-25T14:32:27;100976.66;;;8.99;100.00
32033;BME280;31720;52.638;9.216;2023-04-25T14:35:29;100985.00;;;8.88;100.00
32033;BME280;31720;52.638;9.216;2023-04-25T14:38:30;100980.16;;;8.79;100.00
32033;BME280;31720;52.638;9.216;2023-04-25T14:41:32;100987.63;;;8.68;100.00
32033;BME280;31720;52.638;9.216;2023-04-25T14:44:33;100995.16;;;8.32;100.00
32033;BME280;31720;52.638;9.216;2023-04-25T14:47:36;100999.41;;;8.12;100.00
32033;BME280;31720;52.638;9.216;2023-04-25T14:50:37;101002.72;;;8.18;100.00
32033;BME280;31720;52.638;9.216;2023-04-25T14:53:39;101002.81;;;8.38;100.00
32033;BME280;31720;52.638;9.216;2023-04-25T14:56:40;101003.44;;;8.65;100.00
32033;BME280;31720;52.638;9.216;2023-04-25T14:59:42;101000.00;;;9.05;93.83
32033;BME280;31720;52.638;9.216;2023-04-25T15:02:45;100995.84;;;9.40;89.32
32033;BME280;31720;52.638;9.216;2023-04-25T15:05:46;101003.19;;;9.90;90.15
32033;BME280;31720;52.638;9.216;2023-04-25T15:08:48;101010.56;;;9.82;70.69
32033;BME280;31720;52.638;9.216;2023-04-25T15:11:49;101001.84;;;9.63;66.86
32033;BME280;31720;52.638;9.216;2023-04-25T15:14:51;101006.63;;;9.53;77.63
32033;BME280;31720;52.638;9.216;2023-04-25T15:17:54;101003.03;;;9.56;71.36
32033;BME280;31720;52.638;9.216;2023-04-25T15:20:56;101006.31;;;9.80;70.83
32033;BME280;31720;52.638;9.216;2023-04-25T15:23:57;101002.91;;;9.97;68.93
32033;BME280;31720;52.638;9.216;2023-04-25T15:26:58;101006.53;;;10.13;73.32
32033;BME280;31720;52.638;9.216;2023-04-25T15:30:00;101007.16;;;10.18;76.04
32033;BME280;31720;52.638;9.216;2023-04-25T15:33:03;101017.44;;;10.23;73.49
32033;BME280;31720;52.638;9.216;2023-04-25T15:36:05;101015.53;;;9.88;73.14
32033;BME280;31720;52.638;9.216;2023-04-25T15:39:06;101023.50;;;9.48;74.63
32033;BME280;31720;52.638;9.216;2023-04-25T15:42:07;101033.28;;;9.03;77.41
32033;BME280;31720;52.638;9.216;2023-04-25T15:45:10;101033.28;;;8.83;79.88
32033;BME280;31720;52.638;9.216;2023-04-25T15:48:13;101028.22;;;8.78;74.77
32033;BME280;31720;52.638;9.216;2023-04-25T15:51:14;101034.41;;;8.77;85.21
32033;BME280;31720;52.638;9.216;2023-04-25T15:54:16;101033.47;;;8.78;87.75